Terminal Aerodrome Forecast
Issued by NWS Flagstaff, AZ

Home | Current Version | Previous Version | Text Only | Print | Product List | Glossary On
Versions: 1 2 3 4 5 6 7 8 9 10 11
634
FTUS45 KFGZ 251726
TAFFLG
TAF
KFLG 251726Z 2518/2618 29015G25KT P6SM FEW250
     FM252300 32010G20KT P6SM SKC
     FM260300 28010KT P6SM SKC
     FM260600 VRB05KT P6SM SKC
     FM261700 25010G20KT P6SM SKC=

USA.gov is the U.S. government's official web portal to all federal, state and local government web resources and services.